sensor_id;sensor_type;location;lat;lon;timestamp;P1;durP1;ratioP1;P2;durP2;ratioP2
69937;SDS011;57248;47.320;15.998;2023-03-26T00:01:58;6.15;;;1.88;;
69937;SDS011;57248;47.320;15.998;2023-03-26T00:04:30;3.40;;;1.10;;
69937;SDS011;57248;47.320;15.998;2023-03-26T00:07:10;6.45;;;1.35;;
69937;SDS011;57248;47.320;15.998;2023-03-26T00:09:43;6.05;;;1.52;;
69937;SDS011;57248;47.320;15.998;2023-03-26T00:12:15;4.30;;;1.05;;
69937;SDS011;57248;47.320;15.998;2023-03-26T00:14:40;5.07;;;1.40;;
69937;SDS011;57248;47.320;15.998;2023-03-26T00:17:12;7.05;;;1.60;;
69937;SDS011;57248;47.320;15.998;2023-03-26T00:19:45;5.47;;;1.42;;
69937;SDS011;57248;47.320;15.998;2023-03-26T00:22:17;5.80;;;1.33;;
69937;SDS011;57248;47.320;15.998;2023-03-26T00:24:49;4.88;;;1.30;;
69937;SDS011;57248;47.320;15.998;2023-03-26T00:27:22;4.65;;;1.10;;
69937;SDS011;57248;47.320;15.998;2023-03-26T00:29:54;3.55;;;0.80;;
69937;SDS011;57248;47.320;15.998;2023-03-26T00:32:27;6.13;;;1.00;;
69937;SDS011;57248;47.320;15.998;2023-03-26T00:34:59;5.27;;;1.27;;
69937;SDS011;57248;47.320;15.998;2023-03-26T00:37:35;5.65;;;1.23;;
69937;SDS011;57248;47.320;15.998;2023-03-26T00:40:00;4.18;;;1.00;;
69937;SDS011;57248;47.320;15.998;2023-03-26T00:42:38;4.57;;;1.20;;
69937;SDS011;57248;47.320;15.998;2023-03-26T00:45:10;4.07;;;1.08;;
69937;SDS011;57248;47.320;15.998;2023-03-26T00:47:42;4.40;;;1.38;;
69937;SDS011;57248;47.320;15.998;2023-03-26T00:50:15;4.35;;;1.20;;
69937;SDS011;57248;47.320;15.998;2023-03-26T00:52:47;4.85;;;1.17;;
69937;SDS011;57248;47.320;15.998;2023-03-26T00:55:19;4.90;;;1.40;;
69937;SDS011;57248;47.320;15.998;2023-03-26T00:57:51;4.32;;;1.30;;
69937;SDS011;57248;47.320;15.998;2023-03-26T01:00:27;4.72;;;1.40;;
69937;SDS011;57248;47.320;15.998;2023-03-26T01:03:03;3.88;;;1.10;;
69937;SDS011;57248;47.320;15.998;2023-03-26T01:05:40;4.22;;;0.93;;
69937;SDS011;57248;47.320;15.998;2023-03-26T01:11:02;3.58;;;1.00;;
69937;SDS011;57248;47.320;15.998;2023-03-26T01:14:01;4.00;;;1.05;;
69937;SDS011;57248;47.320;15.998;2023-03-26T01:22:23;4.20;;;1.07;;
69937;SDS011;57248;47.320;15.998;2023-03-26T01:24:57;4.47;;;1.30;;
69937;SDS011;57248;47.320;15.998;2023-03-26T01:27:43;4.90;;;0.85;;
69937;SDS011;57248;47.320;15.998;2023-03-26T01:33:11;4.18;;;1.08;;
69937;SDS011;57248;47.320;15.998;2023-03-26T01:39:20;3.83;;;1.27;;
69937;SDS011;57248;47.320;15.998;2023-03-26T01:42:01;4.03;;;1.27;;
69937;SDS011;57248;47.320;15.998;2023-03-26T01:44:42;3.53;;;1.02;;
69937;SDS011;57248;47.320;15.998;2023-03-26T01:47:21;4.07;;;1.00;;
69937;SDS011;57248;47.320;15.998;2023-03-26T01:49:54;4.03;;;0.97;;
69937;SDS011;57248;47.320;15.998;2023-03-26T01:52:26;3.70;;;0.73;;
69937;SDS011;57248;47.320;15.998;2023-03-26T01:54:58;3.42;;;0.90;;
69937;SDS011;57248;47.320;15.998;2023-03-26T02:00:26;3.50;;;0.80;;
69937;SDS011;57248;47.320;15.998;2023-03-26T02:09:06;4.93;;;1.02;;
69937;SDS011;57248;47.320;15.998;2023-03-26T02:11:44;5.00;;;1.40;;
69937;SDS011;57248;47.320;15.998;2023-03-26T02:14:17;3.65;;;0.80;;
69937;SDS011;57248;47.320;15.998;2023-03-26T02:16:49;6.23;;;1.03;;
69937;SDS011;57248;47.320;15.998;2023-03-26T02:19:22;3.63;;;0.80;;
69937;SDS011;57248;47.320;15.998;2023-03-26T02:21:55;4.03;;;0.90;;
69937;SDS011;57248;47.320;15.998;2023-03-26T02:24:26;3.45;;;0.60;;
69937;SDS011;57248;47.320;15.998;2023-03-26T02:26:58;3.50;;;0.90;;
69937;SDS011;57248;47.320;15.998;2023-03-26T02:29:36;3.67;;;0.80;;
69937;SDS011;57248;47.320;15.998;2023-03-26T02:32:11;3.17;;;0.75;;
69937;SDS011;57248;47.320;15.998;2023-03-26T02:34:38;4.07;;;0.80;;
69937;SDS011;57248;47.320;15.998;2023-03-26T02:37:11;5.18;;;0.80;;
69937;SDS011;57248;47.320;15.998;2023-03-26T02:39:44;5.05;;;0.75;;
69937;SDS011;57248;47.320;15.998;2023-03-26T02:42:25;3.43;;;0.70;;
69937;SDS011;57248;47.320;15.998;2023-03-26T02:44:58;3.70;;;0.88;;
69937;SDS011;57248;47.320;15.998;2023-03-26T02:47:53;3.90;;;0.80;;
69937;SDS011;57248;47.320;15.998;2023-03-26T02:50:51;4.03;;;0.80;;
69937;SDS011;57248;47.320;15.998;2023-03-26T02:53:53;2.85;;;0.60;;
69937;SDS011;57248;47.320;15.998;2023-03-26T02:56:45;3.60;;;0.50;;
69937;SDS011;57248;47.320;15.998;2023-03-26T02:59:46;3.20;;;0.70;;
69937;SDS011;57248;47.320;15.998;2023-03-26T03:02:36;3.88;;;0.80;;
69937;SDS011;57248;47.320;15.998;2023-03-26T03:05:30;6.03;;;0.85;;
69937;SDS011;57248;47.320;15.998;2023-03-26T03:08:25;2.75;;;0.30;;
69937;SDS011;57248;47.320;15.998;2023-03-26T03:11:09;2.73;;;0.43;;
69937;SDS011;57248;47.320;15.998;2023-03-26T03:13:44;2.50;;;0.40;;
69937;SDS011;57248;47.320;15.998;2023-03-26T03:16:20;3.03;;;0.55;;
69937;SDS011;57248;47.320;15.998;2023-03-26T03:18:54;3.13;;;0.30;;
69937;SDS011;57248;47.320;15.998;2023-03-26T03:21:35;2.72;;;0.40;;
69937;SDS011;57248;47.320;15.998;2023-03-26T03:24:07;2.97;;;0.50;;
69937;SDS011;57248;47.320;15.998;2023-03-26T03:26:45;3.08;;;0.52;;
69937;SDS011;57248;47.320;15.998;2023-03-26T03:29:29;3.30;;;0.40;;
69937;SDS011;57248;47.320;15.998;2023-03-26T03:32:33;3.92;;;0.65;;
69937;SDS011;57248;47.320;15.998;2023-03-26T03:35:05;4.20;;;0.60;;
69937;SDS011;57248;47.320;15.998;2023-03-26T03:37:31;2.37;;;0.50;;
69937;SDS011;57248;47.320;15.998;2023-03-26T03:40:04;3.20;;;0.50;;
69937;SDS011;57248;47.320;15.998;2023-03-26T03:42:42;3.05;;;0.38;;
69937;SDS011;57248;47.320;15.998;2023-03-26T03:45:23;2.88;;;0.43;;
69937;SDS011;57248;47.320;15.998;2023-03-26T03:48:13;3.97;;;0.50;;
69937;SDS011;57248;47.320;15.998;2023-03-26T03:50:46;3.03;;;0.90;;
69937;SDS011;57248;47.320;15.998;2023-03-26T03:53:28;2.88;;;0.63;;
69937;SDS011;57248;47.320;15.998;2023-03-26T03:56:02;6.43;;;1.30;;
69937;SDS011;57248;47.320;15.998;2023-03-26T03:59:06;3.88;;;0.93;;
69937;SDS011;57248;47.320;15.998;2023-03-26T04:01:39;4.93;;;1.20;;
69937;SDS011;57248;47.320;15.998;2023-03-26T04:04:23;4.30;;;1.13;;
69937;SDS011;57248;47.320;15.998;2023-03-26T04:07:03;3.85;;;0.80;;
69937;SDS011;57248;47.320;15.998;2023-03-26T04:10:07;3.58;;;0.98;;
69937;SDS011;57248;47.320;15.998;2023-03-26T04:13:18;3.95;;;0.80;;
69937;SDS011;57248;47.320;15.998;2023-03-26T04:16:26;3.10;;;0.65;;
69937;SDS011;57248;47.320;15.998;2023-03-26T04:18:59;2.97;;;0.50;;
69937;SDS011;57248;47.320;15.998;2023-03-26T04:21:33;3.25;;;0.60;;
69937;SDS011;57248;47.320;15.998;2023-03-26T04:24:08;3.30;;;0.63;;
69937;SDS011;57248;47.320;15.998;2023-03-26T04:27:05;2.83;;;0.40;;
69937;SDS011;57248;47.320;15.998;2023-03-26T04:29:41;4.65;;;0.50;;
69937;SDS011;57248;47.320;15.998;2023-03-26T04:32:27;3.47;;;0.50;;
69937;SDS011;57248;47.320;15.998;2023-03-26T04:35:01;2.65;;;0.50;;
69937;SDS011;57248;47.320;15.998;2023-03-26T04:37:35;3.55;;;0.50;;
69937;SDS011;57248;47.320;15.998;2023-03-26T04:40:20;2.80;;;0.52;;
69937;SDS011;57248;47.320;15.998;2023-03-26T04:43:10;2.45;;;0.57;;
69937;SDS011;57248;47.320;15.998;2023-03-26T04:46:11;2.27;;;0.40;;
69937;SDS011;57248;47.320;15.998;2023-03-26T04:48:50;3.33;;;0.52;;
69937;SDS011;57248;47.320;15.998;2023-03-26T04:51:25;2.90;;;0.60;;
69937;SDS011;57248;47.320;15.998;2023-03-26T04:54:02;3.33;;;0.68;;
69937;SDS011;57248;47.320;15.998;2023-03-26T04:56:49;3.72;;;0.70;;
69937;SDS011;57248;47.320;15.998;2023-03-26T04:59:33;2.10;;;0.30;;
69937;SDS011;57248;47.320;15.998;2023-03-26T05:02:09;3.22;;;0.32;;
69937;SDS011;57248;47.320;15.998;2023-03-26T05:04:47;2.40;;;0.35;;
69937;SDS011;57248;47.320;15.998;2023-03-26T05:07:26;2.20;;;0.30;;
69937;SDS011;57248;47.320;15.998;2023-03-26T05:10:14;2.47;;;0.30;;
69937;SDS011;57248;47.320;15.998;2023-03-26T05:12:56;2.93;;;0.27;;
69937;SDS011;57248;47.320;15.998;2023-03-26T05:15:32;1.77;;;0.32;;
69937;SDS011;57248;47.320;15.998;2023-03-26T05:18:17;2.70;;;0.40;;
69937;SDS011;57248;47.320;15.998;2023-03-26T05:20:51;2.50;;;0.60;;
69937;SDS011;57248;47.320;15.998;2023-03-26T05:23:24;3.83;;;0.65;;
69937;SDS011;57248;47.320;15.998;2023-03-26T05:26:09;3.33;;;0.70;;
69937;SDS011;57248;47.320;15.998;2023-03-26T05:28:41;3.95;;;0.70;;
69937;SDS011;57248;47.320;15.998;2023-03-26T05:31:34;3.08;;;0.70;;
69937;SDS011;57248;47.320;15.998;2023-03-26T05:34:06;5.07;;;1.58;;
69937;SDS011;57248;47.320;15.998;2023-03-26T05:36:39;4.50;;;1.42;;
69937;SDS011;57248;47.320;15.998;2023-03-26T05:39:39;3.70;;;0.77;;
69937;SDS011;57248;47.320;15.998;2023-03-26T05:42:37;3.67;;;0.40;;
69937;SDS011;57248;47.320;15.998;2023-03-26T05:45:25;2.35;;;0.40;;
69937;SDS011;57248;47.320;15.998;2023-03-26T05:48:01;3.80;;;1.00;;
69937;SDS011;57248;47.320;15.998;2023-03-26T05:50:33;5.00;;;1.33;;
69937;SDS011;57248;47.320;15.998;2023-03-26T05:53:05;6.30;;;1.53;;
69937;SDS011;57248;47.320;15.998;2023-03-26T05:56:00;8.88;;;1.80;;
69937;SDS011;57248;47.320;15.998;2023-03-26T05:58:50;6.10;;;2.00;;
69937;SDS011;57248;47.320;15.998;2023-03-26T06:01:26;8.80;;;3.30;;
69937;SDS011;57248;47.320;15.998;2023-03-26T06:04:19;8.52;;;2.35;;
69937;SDS011;57248;47.320;15.998;2023-03-26T06:07:09;6.53;;;2.40;;
69937;SDS011;57248;47.320;15.998;2023-03-26T06:10:10;8.43;;;2.60;;
69937;SDS011;57248;47.320;15.998;2023-03-26T06:12:42;7.15;;;2.33;;
69937;SDS011;57248;47.320;15.998;2023-03-26T06:15:15;8.70;;;2.70;;
69937;SDS011;57248;47.320;15.998;2023-03-26T06:17:57;8.85;;;2.78;;
69937;SDS011;57248;47.320;15.998;2023-03-26T06:20:35;8.40;;;2.70;;
69937;SDS011;57248;47.320;15.998;2023-03-26T06:23:18;8.52;;;2.80;;
69937;SDS011;57248;47.320;15.998;2023-03-26T06:26:14;7.00;;;2.50;;
69937;SDS011;57248;47.320;15.998;2023-03-26T06:28:54;7.70;;;3.03;;
69937;SDS011;57248;47.320;15.998;2023-03-26T06:31:48;8.10;;;2.95;;
69937;SDS011;57248;47.320;15.998;2023-03-26T06:34:31;8.93;;;3.10;;
69937;SDS011;57248;47.320;15.998;2023-03-26T06:37:03;9.88;;;3.20;;
69937;SDS011;57248;47.320;15.998;2023-03-26T06:39:35;8.65;;;3.40;;
69937;SDS011;57248;47.320;15.998;2023-03-26T06:42:13;8.57;;;3.33;;
69937;SDS011;57248;47.320;15.998;2023-03-26T06:44:56;6.78;;;2.63;;
69937;SDS011;57248;47.320;15.998;2023-03-26T06:47:47;5.17;;;1.87;;
69937;SDS011;57248;47.320;15.998;2023-03-26T06:50:55;5.80;;;1.75;;
69937;SDS011;57248;47.320;15.998;2023-03-26T06:53:50;5.63;;;1.40;;
69937;SDS011;57248;47.320;15.998;2023-03-26T06:56:48;4.07;;;0.90;;
69937;SDS011;57248;47.320;15.998;2023-03-26T06:59:35;4.45;;;1.00;;
69937;SDS011;57248;47.320;15.998;2023-03-26T07:02:27;3.47;;;1.10;;
69937;SDS011;57248;47.320;15.998;2023-03-26T07:05:25;4.05;;;0.98;;
69937;SDS011;57248;47.320;15.998;2023-03-26T07:08:15;3.67;;;1.25;;
69937;SDS011;57248;47.320;15.998;2023-03-26T07:11:07;6.88;;;1.40;;
69937;SDS011;57248;47.320;15.998;2023-03-26T07:14:18;4.68;;;1.50;;
69937;SDS011;57248;47.320;15.998;2023-03-26T07:17:08;5.00;;;1.87;;
69937;SDS011;57248;47.320;15.998;2023-03-26T07:20:02;5.35;;;1.95;;
69937;SDS011;57248;47.320;15.998;2023-03-26T07:22:36;7.60;;;1.60;;
69937;SDS011;57248;47.320;15.998;2023-03-26T07:25:14;4.57;;;1.60;;
69937;SDS011;57248;47.320;15.998;2023-03-26T07:31:17;6.33;;;2.50;;
69937;SDS011;57248;47.320;15.998;2023-03-26T07:34:21;6.30;;;2.45;;
69937;SDS011;57248;47.320;15.998;2023-03-26T07:44:09;3.53;;;1.30;;
69937;SDS011;57248;47.320;15.998;2023-03-26T07:50:29;3.85;;;1.40;;
69937;SDS011;57248;47.320;15.998;2023-03-26T07:53:20;4.95;;;1.77;;
69937;SDS011;57248;47.320;15.998;2023-03-26T07:56:10;4.43;;;1.30;;
69937;SDS011;57248;47.320;15.998;2023-03-26T07:59:09;3.72;;;1.10;;
69937;SDS011;57248;47.320;15.998;2023-03-26T08:05:29;6.03;;;1.00;;
69937;SDS011;57248;47.320;15.998;2023-03-26T08:17:10;4.13;;;1.20;;
69937;SDS011;57248;47.320;15.998;2023-03-26T08:20:03;6.10;;;1.77;;
69937;SDS011;57248;47.320;15.998;2023-03-26T08:22:44;4.93;;;1.70;;
69937;SDS011;57248;47.320;15.998;2023-03-26T08:25:25;3.67;;;0.95;;
69937;SDS011;57248;47.320;15.998;2023-03-26T08:30:45;4.20;;;0.93;;
69937;SDS011;57248;47.320;15.998;2023-03-26T08:33:17;3.20;;;0.95;;
69937;SDS011;57248;47.320;15.998;2023-03-26T08:35:53;4.95;;;1.40;;
69937;SDS011;57248;47.320;15.998;2023-03-26T08:38:20;4.23;;;0.93;;
69937;SDS011;57248;47.320;15.998;2023-03-26T08:43:59;3.42;;;0.98;;
69937;SDS011;57248;47.320;15.998;2023-03-26T08:49:59;3.37;;;0.90;;
69937;SDS011;57248;47.320;15.998;2023-03-26T08:55:40;3.97;;;1.42;;
69937;SDS011;57248;47.320;15.998;2023-03-26T09:07:32;3.47;;;1.20;;
69937;SDS011;57248;47.320;15.998;2023-03-26T09:13:33;3.90;;;1.88;;
69937;SDS011;57248;47.320;15.998;2023-03-26T09:24:50;2.95;;;1.10;;
69937;SDS011;57248;47.320;15.998;2023-03-26T09:27:36;8.18;;;1.40;;
69937;SDS011;57248;47.320;15.998;2023-03-26T09:30:18;4.28;;;1.60;;
69937;SDS011;57248;47.320;15.998;2023-03-26T09:33:21;3.67;;;1.10;;
69937;SDS011;57248;47.320;15.998;2023-03-26T09:42:16;6.07;;;1.10;;
69937;SDS011;57248;47.320;15.998;2023-03-26T09:57:05;2.53;;;0.90;;
69937;SDS011;57248;47.320;15.998;2023-03-26T10:12:06;1.95;;;0.80;;
69937;SDS011;57248;47.320;15.998;2023-03-26T10:21:17;1.77;;;0.50;;
69937;SDS011;57248;47.320;15.998;2023-03-26T10:24:03;2.00;;;0.68;;
69937;SDS011;57248;47.320;15.998;2023-03-26T10:27:01;2.42;;;0.60;;
69937;SDS011;57248;47.320;15.998;2023-03-26T10:29:57;3.53;;;0.90;;
69937;SDS011;57248;47.320;15.998;2023-03-26T10:35:59;2.55;;;0.70;;
69937;SDS011;57248;47.320;15.998;2023-03-26T10:38:50;2.92;;;0.80;;
69937;SDS011;57248;47.320;15.998;2023-03-26T10:52:48;2.40;;;0.90;;
69937;SDS011;57248;47.320;15.998;2023-03-26T10:55:36;3.80;;;0.93;;
69937;SDS011;57248;47.320;15.998;2023-03-26T11:01:33;3.43;;;0.80;;
69937;SDS011;57248;47.320;15.998;2023-03-26T11:04:54;2.78;;;0.98;;
69937;SDS011;57248;47.320;15.998;2023-03-26T11:07:11;2.35;;;1.23;;
69937;SDS011;57248;47.320;15.998;2023-03-26T11:09:52;3.35;;;1.25;;
69937;SDS011;57248;47.320;15.998;2023-03-26T11:12:44;3.15;;;1.00;;
69937;SDS011;57248;47.320;15.998;2023-03-26T11:16:24;2.73;;;1.10;;
69937;SDS011;57248;47.320;15.998;2023-03-26T11:21:33;3.17;;;1.35;;
69937;SDS011;57248;47.320;15.998;2023-03-26T11:29:49;3.23;;;1.10;;
69937;SDS011;57248;47.320;15.998;2023-03-26T11:32:44;2.72;;;1.10;;
69937;SDS011;57248;47.320;15.998;2023-03-26T11:35:31;2.70;;;1.30;;
69937;SDS011;57248;47.320;15.998;2023-03-26T11:41:23;2.97;;;1.45;;
69937;SDS011;57248;47.320;15.998;2023-03-26T11:44:05;2.23;;;1.13;;
69937;SDS011;57248;47.320;15.998;2023-03-26T11:46:44;3.00;;;1.50;;
69937;SDS011;57248;47.320;15.998;2023-03-26T11:49:19;2.47;;;1.30;;
69937;SDS011;57248;47.320;15.998;2023-03-26T11:51:54;3.53;;;1.10;;
69937;SDS011;57248;47.320;15.998;2023-03-26T11:54:27;2.45;;;1.30;;
69937;SDS011;57248;47.320;15.998;2023-03-26T11:57:04;2.90;;;1.30;;
69937;SDS011;57248;47.320;15.998;2023-03-26T12:00:22;3.50;;;1.20;;
69937;SDS011;57248;47.320;15.998;2023-03-26T12:02:48;2.92;;;1.17;;
69937;SDS011;57248;47.320;15.998;2023-03-26T12:05:21;4.68;;;1.38;;
69937;SDS011;57248;47.320;15.998;2023-03-26T12:08:08;2.40;;;1.08;;
69937;SDS011;57248;47.320;15.998;2023-03-26T12:10:58;3.13;;;1.30;;
69937;SDS011;57248;47.320;15.998;2023-03-26T12:13:49;2.67;;;1.30;;
69937;SDS011;57248;47.320;15.998;2023-03-26T12:16:25;3.10;;;1.33;;
69937;SDS011;57248;47.320;15.998;2023-03-26T12:19:02;4.43;;;1.90;;
69937;SDS011;57248;47.320;15.998;2023-03-26T12:21:50;4.10;;;2.63;;
69937;SDS011;57248;47.320;15.998;2023-03-26T12:24:33;4.03;;;3.17;;
69937;SDS011;57248;47.320;15.998;2023-03-26T12:27:24;6.78;;;4.03;;
69937;SDS011;57248;47.320;15.998;2023-03-26T12:30:09;4.05;;;3.20;;
69937;SDS011;57248;47.320;15.998;2023-03-26T12:32:50;4.38;;;2.45;;
69937;SDS011;57248;47.320;15.998;2023-03-26T12:35:26;4.22;;;1.90;;
69937;SDS011;57248;47.320;15.998;2023-03-26T12:41:12;4.18;;;2.13;;
69937;SDS011;57248;47.320;15.998;2023-03-26T12:43:50;4.10;;;2.53;;
69937;SDS011;57248;47.320;15.998;2023-03-26T12:46:30;5.40;;;3.03;;
69937;SDS011;57248;47.320;15.998;2023-03-26T12:49:05;5.10;;;4.07;;
69937;SDS011;57248;47.320;15.998;2023-03-26T12:51:49;4.27;;;3.47;;
69937;SDS011;57248;47.320;15.998;2023-03-26T12:57:24;4.20;;;1.90;;
69937;SDS011;57248;47.320;15.998;2023-03-26T13:08:21;4.28;;;2.20;;
69937;SDS011;57248;47.320;15.998;2023-03-26T13:14:17;5.22;;;2.80;;
69937;SDS011;57248;47.320;15.998;2023-03-26T13:20:18;5.37;;;2.07;;
69937;SDS011;57248;47.320;15.998;2023-03-26T13:22:58;4.53;;;2.10;;
69937;SDS011;57248;47.320;15.998;2023-03-26T13:25:44;5.40;;;2.22;;
69937;SDS011;57248;47.320;15.998;2023-03-26T13:39:26;6.05;;;4.20;;
69937;SDS011;57248;47.320;15.998;2023-03-26T13:45:19;5.10;;;2.95;;
69937;SDS011;57248;47.320;15.998;2023-03-26T13:48:01;4.53;;;2.70;;
69937;SDS011;57248;47.320;15.998;2023-03-26T13:50:36;5.35;;;3.13;;
69937;SDS011;57248;47.320;15.998;2023-03-26T13:53:19;4.80;;;2.83;;
69937;SDS011;57248;47.320;15.998;2023-03-26T13:55:57;5.63;;;2.72;;
69937;SDS011;57248;47.320;15.998;2023-03-26T13:58:47;5.50;;;2.67;;
69937;SDS011;57248;47.320;15.998;2023-03-26T14:01:29;4.57;;;2.50;;
69937;SDS011;57248;47.320;15.998;2023-03-26T14:04:15;4.60;;;2.60;;
69937;SDS011;57248;47.320;15.998;2023-03-26T14:10:09;4.10;;;1.90;;
69937;SDS011;57248;47.320;15.998;2023-03-26T14:12:59;5.32;;;2.30;;
69937;SDS011;57248;47.320;15.998;2023-03-26T14:15:41;4.40;;;2.40;;
69937;SDS011;57248;47.320;15.998;2023-03-26T14:35:34;5.40;;;2.28;;
69937;SDS011;57248;47.320;15.998;2023-03-26T14:41:12;4.50;;;2.03;;
69937;SDS011;57248;47.320;15.998;2023-03-26T14:46:55;4.68;;;1.80;;
69937;SDS011;57248;47.320;15.998;2023-03-26T14:49:51;4.65;;;1.95;;
69937;SDS011;57248;47.320;15.998;2023-03-26T14:52:51;5.95;;;1.70;;
69937;SDS011;57248;47.320;15.998;2023-03-26T15:01:27;5.38;;;1.90;;
69937;SDS011;57248;47.320;15.998;2023-03-26T15:13:52;5.07;;;1.83;;
69937;SDS011;57248;47.320;15.998;2023-03-26T15:16:56;5.72;;;1.90;;
69937;SDS011;57248;47.320;15.998;2023-03-26T15:40:14;4.95;;;2.30;;
69937;SDS011;57248;47.320;15.998;2023-03-26T15:43:00;4.63;;;2.10;;
69937;SDS011;57248;47.320;15.998;2023-03-26T15:45:45;3.78;;;1.95;;
69937;SDS011;57248;47.320;15.998;2023-03-26T15:54:28;5.22;;;1.90;;
69937;SDS011;57248;47.320;15.998;2023-03-26T15:57:07;4.50;;;1.80;;
69937;SDS011;57248;47.320;15.998;2023-03-26T16:00:03;7.13;;;1.75;;
69937;SDS011;57248;47.320;15.998;2023-03-26T16:11:56;5.47;;;2.30;;
69937;SDS011;57248;47.320;15.998;2023-03-26T16:15:12;5.00;;;2.00;;
69937;SDS011;57248;47.320;15.998;2023-03-26T16:23:53;4.22;;;1.80;;
69937;SDS011;57248;47.320;15.998;2023-03-26T16:29:11;5.95;;;2.13;;
69937;SDS011;57248;47.320;15.998;2023-03-26T16:35:02;5.35;;;1.70;;
69937;SDS011;57248;47.320;15.998;2023-03-26T16:38:08;5.40;;;1.98;;
69937;SDS011;57248;47.320;15.998;2023-03-26T16:40:54;4.00;;;1.70;;
69937;SDS011;57248;47.320;15.998;2023-03-26T16:47:20;5.35;;;2.35;;
69937;SDS011;57248;47.320;15.998;2023-03-26T16:50:19;6.05;;;1.83;;
69937;SDS011;57248;47.320;15.998;2023-03-26T16:53:04;5.25;;;1.80;;
69937;SDS011;57248;47.320;15.998;2023-03-26T16:56:01;5.23;;;2.00;;
69937;SDS011;57248;47.320;15.998;2023-03-26T16:59:23;5.45;;;1.80;;
69937;SDS011;57248;47.320;15.998;2023-03-26T17:11:02;4.23;;;1.60;;
69937;SDS011;57248;47.320;15.998;2023-03-26T17:17:08;4.38;;;1.50;;
69937;SDS011;57248;47.320;15.998;2023-03-26T17:20:03;3.63;;;1.38;;
69937;SDS011;57248;47.320;15.998;2023-03-26T17:22:57;5.45;;;1.67;;
69937;SDS011;57248;47.320;15.998;2023-03-26T17:25:59;4.60;;;1.67;;
69937;SDS011;57248;47.320;15.998;2023-03-26T17:32:05;5.80;;;1.90;;
69937;SDS011;57248;47.320;15.998;2023-03-26T17:34:58;8.45;;;2.17;;
69937;SDS011;57248;47.320;15.998;2023-03-26T17:37:43;4.93;;;1.88;;
69937;SDS011;57248;47.320;15.998;2023-03-26T17:40:25;6.77;;;2.67;;
69937;SDS011;57248;47.320;15.998;2023-03-26T17:43:07;6.32;;;2.60;;
69937;SDS011;57248;47.320;15.998;2023-03-26T17:45:42;7.88;;;2.80;;
69937;SDS011;57248;47.320;15.998;2023-03-26T17:48:17;5.30;;;2.40;;
69937;SDS011;57248;47.320;15.998;2023-03-26T17:50:56;6.40;;;2.80;;
69937;SDS011;57248;47.320;15.998;2023-03-26T17:53:33;6.73;;;2.80;;
69937;SDS011;57248;47.320;15.998;2023-03-26T17:56:03;7.55;;;3.40;;
69937;SDS011;57248;47.320;15.998;2023-03-26T17:58:46;10.52;;;4.30;;
69937;SDS011;57248;47.320;15.998;2023-03-26T18:01:31;3.40;;;0.70;;
69937;SDS011;57248;47.320;15.998;2023-03-26T18:04:16;4.70;;;1.13;;
69937;SDS011;57248;47.320;15.998;2023-03-26T18:10:12;2.65;;;0.35;;
69937;SDS011;57248;47.320;15.998;2023-03-26T18:18:33;3.20;;;0.73;;
69937;SDS011;57248;47.320;15.998;2023-03-26T18:21:38;3.00;;;0.83;;
69937;SDS011;57248;47.320;15.998;2023-03-26T18:24:14;4.03;;;1.13;;
69937;SDS011;57248;47.320;15.998;2023-03-26T18:26:51;3.42;;;1.10;;
69937;SDS011;57248;47.320;15.998;2023-03-26T18:29:28;4.20;;;0.90;;
69937;SDS011;57248;47.320;15.998;2023-03-26T18:34:58;1.77;;;0.37;;
69937;SDS011;57248;47.320;15.998;2023-03-26T18:37:34;1.20;;;0.10;;
69937;SDS011;57248;47.320;15.998;2023-03-26T18:40:12;2.20;;;0.00;;
69937;SDS011;57248;47.320;15.998;2023-03-26T18:42:53;1.83;;;0.00;;
69937;SDS011;57248;47.320;15.998;2023-03-26T18:45:32;1.48;;;0.00;;
69937;SDS011;57248;47.320;15.998;2023-03-26T18:50:56;0.70;;;0.00;;
69937;SDS011;57248;47.320;15.998;2023-03-26T18:53:39;0.90;;;0.00;;
69937;SDS011;57248;47.320;15.998;2023-03-26T18:59:05;2.78;;;0.28;;
69937;SDS011;57248;47.320;15.998;2023-03-26T19:01:50;2.50;;;0.20;;
69937;SDS011;57248;47.320;15.998;2023-03-26T19:04:27;3.80;;;0.82;;
69937;SDS011;57248;47.320;15.998;2023-03-26T19:07:05;2.13;;;0.10;;
69937;SDS011;57248;47.320;15.998;2023-03-26T19:09:48;4.45;;;0.75;;
69937;SDS011;57248;47.320;15.998;2023-03-26T19:12:28;2.40;;;0.10;;
69937;SDS011;57248;47.320;15.998;2023-03-26T19:15:09;1.37;;;0.00;;
69937;SDS011;57248;47.320;15.998;2023-03-26T19:17:44;0.98;;;0.00;;
69937;SDS011;57248;47.320;15.998;2023-03-26T19:20:22;0.73;;;0.00;;
69937;SDS011;57248;47.320;15.998;2023-03-26T19:22:56;0.70;;;0.00;;
69937;SDS011;57248;47.320;15.998;2023-03-26T19:25:48;1.40;;;0.55;;
69937;SDS011;57248;47.320;15.998;2023-03-26T19:28:38;2.03;;;0.00;;
69937;SDS011;57248;47.320;15.998;2023-03-26T19:33:45;0.35;;;0.00;;
69937;SDS011;57248;47.320;15.998;2023-03-26T19:36:55;0.85;;;0.00;;
69937;SDS011;57248;47.320;15.998;2023-03-26T19:39:45;0.30;;;0.00;;
69937;SDS011;57248;47.320;15.998;2023-03-26T19:42:25;0.70;;;0.00;;
69937;SDS011;57248;47.320;15.998;2023-03-26T19:45:04;0.77;;;0.10;;
69937;SDS011;57248;47.320;15.998;2023-03-26T19:47:48;1.15;;;0.00;;
69937;SDS011;57248;47.320;15.998;2023-03-26T19:50:25;0.77;;;0.00;;
69937;SDS011;57248;47.320;15.998;2023-03-26T19:56:11;1.33;;;0.10;;
69937;SDS011;57248;47.320;15.998;2023-03-26T19:58:45;1.25;;;0.10;;
69937;SDS011;57248;47.320;15.998;2023-03-26T20:01:19;2.67;;;0.10;;
69937;SDS011;57248;47.320;15.998;2023-03-26T20:04:01;4.03;;;0.80;;
69937;SDS011;57248;47.320;15.998;2023-03-26T20:06:35;3.22;;;1.17;;
69937;SDS011;57248;47.320;15.998;2023-03-26T20:09:17;3.77;;;0.93;;
69937;SDS011;57248;47.320;15.998;2023-03-26T20:11:51;2.85;;;1.10;;
69937;SDS011;57248;47.320;15.998;2023-03-26T20:14:24;4.75;;;1.33;;
69937;SDS011;57248;47.320;15.998;2023-03-26T20:16:50;3.00;;;0.63;;
69937;SDS011;57248;47.320;15.998;2023-03-26T20:19:22;3.93;;;0.50;;
69937;SDS011;57248;47.320;15.998;2023-03-26T20:21:55;3.03;;;0.50;;
69937;SDS011;57248;47.320;15.998;2023-03-26T20:24:27;1.63;;;0.30;;
69937;SDS011;57248;47.320;15.998;2023-03-26T20:27:01;2.13;;;0.20;;
69937;SDS011;57248;47.320;15.998;2023-03-26T20:29:26;1.20;;;0.30;;
69937;SDS011;57248;47.320;15.998;2023-03-26T20:31:59;1.35;;;0.17;;
69937;SDS011;57248;47.320;15.998;2023-03-26T20:34:31;1.40;;;0.10;;
69937;SDS011;57248;47.320;15.998;2023-03-26T20:37:04;1.53;;;0.10;;
69937;SDS011;57248;47.320;15.998;2023-03-26T20:39:29;0.50;;;0.00;;
69937;SDS011;57248;47.320;15.998;2023-03-26T20:42:01;2.23;;;0.10;;
69937;SDS011;57248;47.320;15.998;2023-03-26T20:44:35;2.33;;;0.03;;
69937;SDS011;57248;47.320;15.998;2023-03-26T20:47:08;1.83;;;0.00;;
69937;SDS011;57248;47.320;15.998;2023-03-26T20:49:41;0.82;;;0.00;;
69937;SDS011;57248;47.320;15.998;2023-03-26T20:52:14;1.27;;;0.00;;
69937;SDS011;57248;47.320;15.998;2023-03-26T20:54:46;1.70;;;0.00;;
69937;SDS011;57248;47.320;15.998;2023-03-26T20:57:19;1.17;;;0.00;;
69937;SDS011;57248;47.320;15.998;2023-03-26T20:59:51;6.43;;;1.40;;
69937;SDS011;57248;47.320;15.998;2023-03-26T21:02:26;4.20;;;0.57;;
69937;SDS011;57248;47.320;15.998;2023-03-26T21:04:58;4.30;;;0.70;;
69937;SDS011;57248;47.320;15.998;2023-03-26T21:07:31;10.03;;;3.90;;
69937;SDS011;57248;47.320;15.998;2023-03-26T21:10:03;6.13;;;2.20;;
69937;SDS011;57248;47.320;15.998;2023-03-26T21:12:56;6.85;;;1.38;;
69937;SDS011;57248;47.320;15.998;2023-03-26T21:15:30;5.63;;;1.23;;
69937;SDS011;57248;47.320;15.998;2023-03-26T21:18:02;7.65;;;1.38;;